Time;durP1;ratioP1;P1;durP2;ratioP2;P2;SDS_P1;SDS_P2;PMS_P1;PMS_P2;Temp;Humidity;BMP_temperature;BMP_pressure;BME280_temperature;BME280_humidity;BME280_pressure;Samples;Min_cycle;Max_cycle;Signal;HPM_P1;HPM_P2
2021/12/19 00:01:26;;;;;;;;;;;1.00;99.90;;;;;;5073890;28;19978;-49
2021/12/19 00:04:00;;;;;;;;;;;1.00;99.90;;;;;;5093334;28;19991;-49
2021/12/19 00:09:11;;;;;;;;;;;1.00;99.90;;;;;;5094733;28;19927;-49
2021/12/19 00:11:38;;;;;;;;;;;0.90;99.90;;;;;;5093896;28;19949;-50
2021/12/19 00:14:08;;;;;;;;;;;1.00;99.90;;;;;;5093567;28;19931;-50
2021/12/19 00:16:35;;;;;;;;;;;1.00;99.90;;;;;;5094253;28;19924;-51
2021/12/19 00:19:04;;;;;;;;;;;1.10;99.90;;;;;;5092941;28;19928;-49
2021/12/19 00:21:33;;;;;;;;;;;1.00;99.90;;;;;;5093307;28;20446;-51
2021/12/19 00:24:00;;;;;;;;;;;0.90;99.90;;;;;;5093964;28;19924;-49
2021/12/19 00:26:27;;;;;;;;;;;0.90;99.90;;;;;;5094610;28;19924;-50
2021/12/19 00:28:54;;;;;;;;;;;1.00;99.90;;;;;;5094425;28;19970;-49
2021/12/19 00:31:25;;;;;;;;;;;1.10;99.90;;;;;;5094012;28;19924;-51
2021/12/19 00:33:52;;;;;;;;;;;1.00;99.90;;;;;;5091923;28;20381;-50
2021/12/19 00:36:19;;;;;;;;;;;1.00;99.90;;;;;;5099447;28;19925;-49
2021/12/19 00:38:46;;;;;;;;;;;1.10;99.90;;;;;;5093541;28;19978;-50
2021/12/19 00:41:13;;;;;;;;;;;1.10;99.90;;;;;;5092028;28;20573;-48
2021/12/19 00:43:46;;;;;;;;;;;1.00;99.90;;;;;;5092491;28;21903;-50
2021/12/19 00:46:14;;;;;;;;;;;1.10;99.90;;;;;;5092079;28;20300;-49
2021/12/19 00:48:43;;;;;;;;;;;0.90;99.90;;;;;;5090313;28;19924;-50
2021/12/19 00:51:10;;;;;;;;;;;0.80;99.90;;;;;;5080638;28;19924;-51
2021/12/19 00:53:37;;;;;;;;;;;0.90;99.90;;;;;;5074344;28;20448;-50
2021/12/19 00:56:04;;;;;;;;;;;0.90;99.90;;;;;;5074903;28;19970;-50
2021/12/19 00:58:31;;;;;;;;;;;1.00;99.90;;;;;;5073999;28;20348;-50
2021/12/19 01:00:58;;;;;;;;;;;1.10;99.90;;;;;;5073765;28;19928;-51
2021/12/19 01:03:25;;;;;;;;;;;1.00;99.90;;;;;;5092099;28;19924;-50
2021/12/19 01:05:53;;;;;;;;;;;1.20;99.90;;;;;;5093464;28;20385;-49
2021/12/19 01:08:20;;;;;;;;;;;1.30;99.90;;;;;;5085260;28;20416;-50
2021/12/19 01:10:47;;;;;;;;;;;1.20;99.90;;;;;;5073993;28;19978;-50
2021/12/19 01:13:15;;;;;;;;;;;1.10;99.90;;;;;;5073930;28;19924;-50
2021/12/19 01:15:42;;;;;;;;;;;1.10;99.90;;;;;;5082462;28;19928;-50
2021/12/19 01:18:09;;;;;;;;;;;1.10;99.90;;;;;;5088741;28;19974;-50
2021/12/19 01:20:37;;;;;;;;;;;1.20;99.90;;;;;;5088711;28;19924;-49
2021/12/19 01:23:06;;;;;;;;;;;1.20;99.90;;;;;;5077573;28;19924;-49
2021/12/19 01:25:33;;;;;;;;;;;1.10;99.90;;;;;;5074190;28;20394;-50
2021/12/19 01:27:59;;;;;;;;;;;0.90;99.90;;;;;;5085217;28;20297;-50
2021/12/19 01:30:26;;;;;;;;;;;1.00;99.90;;;;;;5073031;28;19926;-49
2021/12/19 01:32:53;;;;;;;;;;;1.10;99.90;;;;;;5085489;28;19924;-49
2021/12/19 01:35:21;;;;;;;;;;;1.10;99.90;;;;;;5093332;28;19969;-49
2021/12/19 01:37:48;;;;;;;;;;;1.00;99.90;;;;;;5090940;28;19928;-50
2021/12/19 01:40:17;;;;;;;;;;;0.90;99.90;;;;;;5075520;28;19924;-50
2021/12/19 01:42:45;;;;;;;;;;;1.00;99.90;;;;;;5092528;28;19924;-50
2021/12/19 01:45:13;;;;;;;;;;;1.00;99.90;;;;;;5092891;28;19985;-49
2021/12/19 01:47:40;;;;;;;;;;;1.00;99.90;;;;;;5092282;28;19932;-50
2021/12/19 01:50:08;;;;;;;;;;;1.10;99.90;;;;;;5091611;28;19924;-50
2021/12/19 01:52:35;;;;;;;;;;;1.10;99.90;;;;;;5093080;28;19931;-49
2021/12/19 01:55:02;;;;;;;;;;;1.20;99.90;;;;;;5079207;28;19924;-50
2021/12/19 01:57:30;;;;;;;;;;;1.20;99.90;;;;;;5074686;28;19982;-49
2021/12/19 01:59:56;;;;;;;;;;;1.20;99.90;;;;;;5083515;28;19977;-49
2021/12/19 02:02:23;;;;;;;;;;;1.20;99.90;;;;;;5086583;28;19924;-51
2021/12/19 02:04:50;;;;;;;;;;;1.00;99.90;;;;;;5072907;28;19975;-50
2021/12/19 02:07:17;;;;;;;;;;;1.00;99.90;;;;;;5074100;28;19925;-48
2021/12/19 02:09:44;;;;;;;;;;;0.90;99.90;;;;;;5089255;28;19960;-51
2021/12/19 02:12:11;;;;;;;;;;;0.90;99.90;;;;;;5093071;28;19984;-50
2021/12/19 02:14:39;;;;;;;;;;;0.90;99.90;;;;;;5092953;28;19969;-51
2021/12/19 02:17:06;;;;;;;;;;;0.80;99.90;;;;;;5093029;28;19924;-50
2021/12/19 02:19:33;;;;;;;;;;;0.90;99.90;;;;;;5077934;28;19924;-49
2021/12/19 02:22:01;;;;;;;;;;;0.90;99.90;;;;;;5072463;28;19924;-49
2021/12/19 02:24:28;;;;;;;;;;;0.90;99.90;;;;;;5074846;28;19978;-50
2021/12/19 02:26:54;;;;;;;;;;;1.00;99.90;;;;;;5072487;28;20386;-50
2021/12/19 02:29:21;;;;;;;;;;;0.90;99.90;;;;;;5072914;28;19925;-50
2021/12/19 02:31:48;;;;;;;;;;;0.90;99.90;;;;;;5073480;28;19924;-49
2021/12/19 02:34:18;;;;;;;;;;;1.10;99.90;;;;;;5072816;28;19925;-50
2021/12/19 02:36:57;;;;;;;;;;;1.00;99.90;;;;;;5073918;28;19924;-50
2021/12/19 02:39:49;;;;;;;;;;;1.00;99.90;;;;;;5073872;28;19924;-50
2021/12/19 02:50:29;;;;;;;;;;;1.00;99.90;;;;;;5091349;28;19935;-50
2021/12/19 02:52:55;;;;;;;;;;;0.90;99.90;;;;;;5078613;28;19978;-49
2021/12/19 02:55:23;;;;;;;;;;;0.80;99.90;;;;;;5074046;28;20336;-50
2021/12/19 02:57:51;;;;;;;;;;;1.10;99.90;;;;;;5072412;28;19951;-49
2021/12/19 03:00:20;;;;;;;;;;;1.10;99.90;;;;;;5090735;28;19925;-50
2021/12/19 03:02:47;;;;;;;;;;;1.20;99.90;;;;;;5092537;28;19924;-49
2021/12/19 03:05:13;;;;;;;;;;;1.30;99.90;;;;;;5093027;28;19978;-49
2021/12/19 03:07:42;;;;;;;;;;;1.10;99.90;;;;;;5092211;28;19970;-50
2021/12/19 03:10:35;;;;;;;;;;;1.10;99.90;;;;;;5074605;28;19929;-51
2021/12/19 03:13:14;;;;;;;;;;;1.20;99.90;;;;;;5073695;28;19932;-50
2021/12/19 03:18:25;;;;;;;;;;;1.10;99.90;;;;;;5072792;28;20309;-50
2021/12/19 03:20:51;;;;;;;;;;;0.90;99.90;;;;;;5076255;28;20422;-50
2021/12/19 03:23:18;;;;;;;;;;;1.00;99.90;;;;;;5072529;28;19924;-50
2021/12/19 03:25:45;;;;;;;;;;;1.00;99.90;;;;;;5072137;28;20386;-50
2021/12/19 03:28:13;;;;;;;;;;;1.10;99.90;;;;;;5073716;28;19970;-51
2021/12/19 03:30:41;;;;;;;;;;;1.20;99.90;;;;;;5072162;28;19924;-49
2021/12/19 03:33:09;;;;;;;;;;;1.10;99.90;;;;;;5074328;28;19924;-51
2021/12/19 03:35:36;;;;;;;;;;;0.90;99.90;;;;;;5075740;28;19985;-49
2021/12/19 03:38:05;;;;;;;;;;;0.90;99.90;;;;;;5093930;28;19977;-51
2021/12/19 03:40:40;;;;;;;;;;;0.90;99.90;;;;;;5095639;28;19924;-49
2021/12/19 03:43:07;;;;;;;;;;;0.90;99.90;;;;;;5087570;28;19925;-50
2021/12/19 03:45:36;;;;;;;;;;;0.80;99.90;;;;;;5076080;28;19985;-50
2021/12/19 03:48:04;;;;;;;;;;;0.80;99.90;;;;;;5075826;28;19924;-49
2021/12/19 03:50:33;;;;;;;;;;;0.80;99.90;;;;;;5095147;28;19960;-50
2021/12/19 03:53:00;;;;;;;;;;;0.80;99.90;;;;;;5095823;28;19928;-49
2021/12/19 03:55:27;;;;;;;;;;;0.70;99.90;;;;;;5096202;28;20443;-50
2021/12/19 03:57:55;;;;;;;;;;;0.80;99.90;;;;;;5090240;28;20045;-50
2021/12/19 04:00:24;;;;;;;;;;;0.70;99.90;;;;;;5094139;28;20384;-50
2021/12/19 04:02:54;;;;;;;;;;;0.70;99.90;;;;;;5095667;28;19924;-49
2021/12/19 04:05:21;;;;;;;;;;;0.70;99.90;;;;;;5095306;28;19938;-50
2021/12/19 04:07:48;;;;;;;;;;;0.80;99.90;;;;;;5095323;28;19977;-49
2021/12/19 04:10:15;;;;;;;;;;;0.80;99.90;;;;;;5078779;28;19929;-50
2021/12/19 04:12:43;;;;;;;;;;;0.90;99.90;;;;;;5075809;28;19977;-50
2021/12/19 04:15:11;;;;;;;;;;;0.80;99.90;;;;;;5074872;28;19935;-50
2021/12/19 04:17:37;;;;;;;;;;;0.70;99.90;;;;;;5074698;28;19978;-49
2021/12/19 04:20:07;;;;;;;;;;;0.90;99.90;;;;;;5074677;28;19924;-50
2021/12/19 04:22:34;;;;;;;;;;;1.00;99.90;;;;;;5074533;28;19978;-50
2021/12/19 04:25:00;;;;;;;;;;;0.80;99.90;;;;;;5075769;28;19970;-49
2021/12/19 04:27:29;;;;;;;;;;;0.80;99.90;;;;;;5075564;28;19924;-49
2021/12/19 04:29:55;;;;;;;;;;;0.90;99.90;;;;;;5074651;28;20007;-49
2021/12/19 04:32:26;;;;;;;;;;;0.70;99.90;;;;;;5086475;28;19924;-49
2021/12/19 04:34:53;;;;;;;;;;;0.70;99.90;;;;;;5076424;28;19940;-50
2021/12/19 04:37:44;;;;;;;;;;;0.70;99.90;;;;;;5081053;28;19940;-49
2021/12/19 04:40:15;;;;;;;;;;;0.70;99.90;;;;;;5086493;28;19928;-49
2021/12/19 04:51:09;;;;;;;;;;;0.60;99.90;;;;;;5079901;28;19927;-49
2021/12/19 04:53:50;;;;;;;;;;;0.60;99.90;;;;;;5094641;28;19924;-48
2021/12/19 04:56:38;;;;;;;;;;;0.60;99.90;;;;;;5094664;28;19924;-48
2021/12/19 05:05:04;;;;;;;;;;;0.60;99.90;;;;;;5130897;27;19916;-50
2021/12/19 05:15:44;;;;;;;;;;;0.50;99.90;;;;;;5119456;28;19927;-49
2021/12/19 05:18:11;;;;;;;;;;;0.40;99.90;;;;;;5110384;28;19952;-50
2021/12/19 05:20:50;;;;;;;;;;;0.60;99.90;;;;;;5110520;28;19928;-49
2021/12/19 05:23:23;;;;;;;;;;;0.50;99.90;;;;;;5089973;28;19924;-50
2021/12/19 05:25:50;;;;;;;;;;;0.50;99.90;;;;;;5102955;28;20320;-50
2021/12/19 05:28:17;;;;;;;;;;;0.50;99.90;;;;;;5110454;28;19928;-50
2021/12/19 05:30:44;;;;;;;;;;;0.50;99.90;;;;;;5118961;28;19928;-49
2021/12/19 05:33:11;;;;;;;;;;;0.50;99.90;;;;;;5110625;28;19924;-49
2021/12/19 05:36:02;;;;;;;;;;;0.50;99.90;;;;;;5110043;28;20403;-50
2021/12/19 05:45:12;;;;;;;;;;;0.40;99.90;;;;;;5086303;28;19966;-49
2021/12/19 05:47:04;;;;;;;;;;;0.40;99.90;;;;;;5109445;28;20027;-50
2021/12/19 05:49:30;;;;;;;;;;;0.40;99.90;;;;;;5109682;28;19949;-49
2021/12/19 05:51:58;;;;;;;;;;;0.30;99.90;;;;;;5113521;28;19932;-49
2021/12/19 05:54:26;;;;;;;;;;;0.30;99.90;;;;;;5113116;28;20019;-49
2021/12/19 05:56:53;;;;;;;;;;;0.30;99.90;;;;;;5109863;28;19977;-50
2021/12/19 05:59:19;;;;;;;;;;;0.30;99.90;;;;;;5109896;28;19969;-49
2021/12/19 06:01:46;;;;;;;;;;;0.30;99.90;;;;;;5109407;28;19927;-50
2021/12/19 06:04:14;;;;;;;;;;;0.50;99.90;;;;;;5109207;28;20395;-48
2021/12/19 06:06:41;;;;;;;;;;;0.50;99.90;;;;;;5109462;28;20018;-49
2021/12/19 06:09:07;;;;;;;;;;;0.40;99.90;;;;;;5109612;28;19924;-48
2021/12/19 06:11:36;;;;;;;;;;;0.40;99.90;;;;;;5109098;28;19935;-49
2021/12/19 06:14:02;;;;;;;;;;;0.50;99.90;;;;;;5106347;28;19924;-51
2021/12/19 06:16:29;;;;;;;;;;;0.50;99.90;;;;;;5095957;28;19977;-51
2021/12/19 06:18:56;;;;;;;;;;;0.50;99.90;;;;;;5095406;28;19924;-49
2021/12/19 06:21:23;;;;;;;;;;;0.50;99.90;;;;;;5095760;28;19924;-49
2021/12/19 06:23:49;;;;;;;;;;;0.40;99.90;;;;;;5095671;28;19924;-49
2021/12/19 06:26:16;;;;;;;;;;;0.50;99.90;;;;;;5095488;28;19928;-50
2021/12/19 06:28:44;;;;;;;;;;;0.50;99.90;;;;;;5095607;28;20283;-50
2021/12/19 06:31:11;;;;;;;;;;;0.50;99.90;;;;;;5095722;28;19985;-49
2021/12/19 06:33:38;;;;;;;;;;;0.40;99.90;;;;;;5095394;28;19928;-49
2021/12/19 06:36:05;;;;;;;;;;;0.40;99.90;;;;;;5095215;28;20430;-50
2021/12/19 06:38:32;;;;;;;;;;;0.50;99.90;;;;;;5095212;28;19924;-50
2021/12/19 06:40:59;;;;;;;;;;;0.40;99.90;;;;;;5095170;28;19977;-51
2021/12/19 06:43:26;;;;;;;;;;;0.40;99.90;;;;;;5095074;28;19985;-49
2021/12/19 06:45:55;;;;;;;;;;;0.40;99.90;;;;;;5095283;28;19963;-50
2021/12/19 06:48:24;;;;;;;;;;;0.50;99.90;;;;;;5095706;28;19924;-50
2021/12/19 06:50:51;;;;;;;;;;;0.50;99.90;;;;;;5094212;28;20409;-49
2021/12/19 06:53:17;;;;;;;;;;;0.50;99.90;;;;;;5094828;28;19985;-49
2021/12/19 06:55:44;;;;;;;;;;;0.60;99.90;;;;;;5094869;28;19924;-49
2021/12/19 06:58:11;;;;;;;;;;;0.50;99.90;;;;;;5094850;28;19977;-49
2021/12/19 07:00:38;;;;;;;;;;;0.50;99.90;;;;;;5094343;28;19928;-50
2021/12/19 07:03:06;;;;;;;;;;;0.60;99.90;;;;;;5094156;28;19928;-49
2021/12/19 07:05:33;;;;;;;;;;;0.60;99.90;;;;;;5107565;28;20022;-49
2021/12/19 07:07:59;;;;;;;;;;;0.60;99.90;;;;;;5098195;28;19924;-49
2021/12/19 07:10:26;;;;;;;;;;;0.60;99.90;;;;;;5098681;28;19928;-49
2021/12/19 07:12:53;;;;;;;;;;;0.50;99.90;;;;;;5095139;28;19928;-49
2021/12/19 07:15:20;;;;;;;;;;;0.50;99.90;;;;;;5104936;28;20387;-49
2021/12/19 07:17:47;;;;;;;;;;;0.50;99.90;;;;;;5093973;28;19925;-48
2021/12/19 07:20:15;;;;;;;;;;;0.60;99.90;;;;;;5094484;28;19977;-49
2021/12/19 07:22:43;;;;;;;;;;;0.60;99.90;;;;;;5094496;28;19993;-49
2021/12/19 07:25:10;;;;;;;;;;;0.60;99.90;;;;;;5094562;28;19924;-50
2021/12/19 07:27:37;;;;;;;;;;;0.50;99.90;;;;;;5097244;28;19923;-48
2021/12/19 07:30:04;;;;;;;;;;;0.60;99.90;;;;;;5094605;28;19981;-51
2021/12/19 07:32:33;;;;;;;;;;;0.60;99.90;;;;;;5094664;28;19946;-49
2021/12/19 07:35:00;;;;;;;;;;;0.50;99.90;;;;;;5093847;28;20522;-49
2021/12/19 07:37:28;;;;;;;;;;;0.60;99.90;;;;;;5093437;28;19924;-48
2021/12/19 07:39:59;;;;;;;;;;;0.50;99.90;;;;;;5094196;28;19974;-50
2021/12/19 07:42:25;;;;;;;;;;;0.40;99.90;;;;;;5094089;28;19924;-49
2021/12/19 07:44:52;;;;;;;;;;;0.30;99.90;;;;;;5094062;28;20438;-51
2021/12/19 07:47:19;;;;;;;;;;;0.50;99.90;;;;;;5082812;28;19928;-50
2021/12/19 07:49:45;;;;;;;;;;;0.60;99.90;;;;;;5092787;28;19924;-49
2021/12/19 07:52:12;;;;;;;;;;;0.50;99.90;;;;;;5090435;28;19924;-51
2021/12/19 07:54:40;;;;;;;;;;;0.60;99.90;;;;;;5092661;28;19928;-49
2021/12/19 07:57:07;;;;;;;;;;;0.50;99.90;;;;;;5093146;28;19981;-50
2021/12/19 07:59:34;;;;;;;;;;;0.60;99.90;;;;;;5084448;28;19924;-50
2021/12/19 08:02:02;;;;;;;;;;;0.50;99.90;;;;;;5084163;28;19928;-50
2021/12/19 08:04:29;;;;;;;;;;;0.50;99.90;;;;;;5093485;28;19943;-50
2021/12/19 08:06:56;;;;;;;;;;;0.50;99.90;;;;;;5082361;28;19924;-50
2021/12/19 08:09:35;;;;;;;;;;;0.50;99.90;;;;;;5092951;28;19924;-51
2021/12/19 08:12:03;;;;;;;;;;;0.70;99.90;;;;;;5083996;28;19924;-49
2021/12/19 08:14:30;;;;;;;;;;;0.60;99.90;;;;;;5090146;28;19927;-50
2021/12/19 08:16:57;;;;;;;;;;;0.50;99.90;;;;;;5091105;28;20022;-51
2021/12/19 08:19:24;;;;;;;;;;;0.60;99.90;;;;;;5091448;28;19928;-49
2021/12/19 08:21:52;;;;;;;;;;;0.50;99.90;;;;;;5093414;28;20413;-51
2021/12/19 08:24:19;;;;;;;;;;;0.50;99.90;;;;;;5091607;28;19989;-50
2021/12/19 08:26:46;;;;;;;;;;;0.60;99.90;;;;;;5085534;28;19977;-50
2021/12/19 08:29:15;;;;;;;;;;;0.70;99.90;;;;;;5092429;28;19924;-50
2021/12/19 08:31:42;;;;;;;;;;;0.60;99.90;;;;;;5091054;28;19939;-51
2021/12/19 08:34:09;;;;;;;;;;;0.50;99.90;;;;;;5081982;28;19970;-51
2021/12/19 08:36:37;;;;;;;;;;;0.60;99.90;;;;;;5078890;28;19932;-50
2021/12/19 08:39:08;;;;;;;;;;;0.50;99.90;;;;;;5091194;28;20347;-50
2021/12/19 08:41:35;;;;;;;;;;;0.60;99.90;;;;;;5092602;28;20521;-49
2021/12/19 08:44:02;;;;;;;;;;;0.80;99.90;;;;;;5091837;28;19924;-50
2021/12/19 08:46:32;;;;;;;;;;;0.70;99.90;;;;;;5091218;28;19936;-50
2021/12/19 08:48:59;;;;;;;;;;;0.70;99.90;;;;;;5088240;28;19924;-50
2021/12/19 08:51:26;;;;;;;;;;;0.60;99.90;;;;;;5086887;28;20463;-50
2021/12/19 08:53:54;;;;;;;;;;;0.70;99.90;;;;;;5077395;28;19924;-49
2021/12/19 08:56:20;;;;;;;;;;;0.60;99.90;;;;;;5083965;28;19969;-49
2021/12/19 08:58:47;;;;;;;;;;;0.70;99.90;;;;;;5110308;28;20346;-49
2021/12/19 09:01:14;;;;;;;;;;;0.50;99.90;;;;;;5088270;28;19924;-49
2021/12/19 09:03:42;;;;;;;;;;;0.60;99.90;;;;;;5092339;28;19931;-49
2021/12/19 09:06:09;;;;;;;;;;;0.60;99.90;;;;;;5090959;28;19924;-50
2021/12/19 09:08:36;;;;;;;;;;;0.70;99.90;;;;;;5108584;22;19929;-48
2021/12/19 09:11:04;;;;;;;;;;;0.70;99.90;;;;;;5071472;28;19924;-48
2021/12/19 09:13:31;;;;;;;;;;;0.70;99.90;;;;;;5067197;28;19978;-48
2021/12/19 09:15:58;;;;;;;;;;;0.70;99.90;;;;;;5066734;28;19933;-47
2021/12/19 09:18:25;;;;;;;;;;;0.60;99.90;;;;;;5041557;28;20493;-49
2021/12/19 09:20:53;;;;;;;;;;;0.60;99.90;;;;;;5033739;28;19925;-49
2021/12/19 09:23:20;;;;;;;;;;;0.60;99.90;;;;;;5043353;28;19932;-47
2021/12/19 09:25:46;;;;;;;;;;;0.60;99.90;;;;;;5069795;28;19981;-49
2021/12/19 09:28:13;;;;;;;;;;;0.70;99.90;;;;;;5063815;28;19924;-48
2021/12/19 09:30:41;;;;;;;;;;;0.70;99.90;;;;;;5047714;28;19979;-48
2021/12/19 09:33:08;;;;;;;;;;;0.80;99.90;;;;;;5051048;28;19924;-48
2021/12/19 09:35:36;;;;;;;;;;;0.90;99.90;;;;;;5039284;28;20009;-48
2021/12/19 09:38:05;;;;;;;;;;;0.80;99.90;;;;;;5057036;28;19948;-49
2021/12/19 09:40:37;;;;;;;;;;;0.80;99.90;;;;;;5064657;28;20352;-49
2021/12/19 09:43:05;;;;;;;;;;;0.70;99.90;;;;;;5038064;28;19935;-49
2021/12/19 09:45:32;;;;;;;;;;;0.90;99.90;;;;;;5050829;28;19971;-49
2021/12/19 09:47:59;;;;;;;;;;;0.90;99.90;;;;;;5050560;28;19970;-49
2021/12/19 09:50:26;;;;;;;;;;;0.90;99.90;;;;;;5052113;28;20362;-49
2021/12/19 09:52:53;;;;;;;;;;;0.80;99.90;;;;;;5052069;28;19928;-50
2021/12/19 09:55:22;;;;;;;;;;;0.80;99.90;;;;;;5046129;28;19998;-49
2021/12/19 09:57:49;;;;;;;;;;;0.90;99.90;;;;;;5049487;28;20047;-49
2021/12/19 10:00:17;;;;;;;;;;;0.90;99.90;;;;;;5054529;28;19933;-49
2021/12/19 10:02:43;;;;;;;;;;;0.90;99.90;;;;;;5054353;28;19925;-50
2021/12/19 10:05:21;;;;;;;;;;;1.10;99.90;;;;;;5054322;28;19929;-49
2021/12/19 10:07:49;;;;;;;;;;;1.20;99.90;;;;;;5064174;28;20432;-49
2021/12/19 10:10:24;;;;;;;;;;;1.10;99.90;;;;;;5052980;28;19928;-48
2021/12/19 10:12:57;;;;;;;;;;;1.00;99.90;;;;;;5057361;28;19972;-49
2021/12/19 10:15:29;;;;;;;;;;;1.00;99.90;;;;;;5056275;28;19970;-49
2021/12/19 10:17:59;;;;;;;;;;;0.90;99.90;;;;;;5053890;28;19925;-50
2021/12/19 10:20:26;;;;;;;;;;;0.90;99.90;;;;;;5053035;28;19932;-49
2021/12/19 10:22:53;;;;;;;;;;;1.00;99.90;;;;;;5053651;28;19929;-49
2021/12/19 10:25:20;;;;;;;;;;;1.10;99.90;;;;;;5053865;28;20000;-49
2021/12/19 10:27:48;;;;;;;;;;;1.20;99.90;;;;;;5053026;28;19932;-51
2021/12/19 10:30:21;;;;;;;;;;;1.30;99.90;;;;;;5053727;28;19924;-49
2021/12/19 10:32:51;;;;;;;;;;;1.40;99.90;;;;;;5037484;28;19932;-50
2021/12/19 10:35:20;;;;;;;;;;;1.60;99.90;;;;;;5053112;28;19986;-49
2021/12/19 10:37:47;;;;;;;;;;;1.70;99.90;;;;;;5052419;28;19975;-49
2021/12/19 10:40:13;;;;;;;;;;;1.70;99.90;;;;;;5053426;28;19986;-51
2021/12/19 10:42:47;;;;;;;;;;;1.50;99.90;;;;;;5052709;28;20899;-49
2021/12/19 10:45:33;;;;;;;;;;;1.30;99.90;;;;;;5051856;28;19932;-49
2021/12/19 10:48:15;;;;;;;;;;;1.50;99.90;;;;;;5051392;28;19931;-50
2021/12/19 10:50:44;;;;;;;;;;;1.70;99.90;;;;;;5048851;28;20329;-50
2021/12/19 10:53:15;;;;;;;;;;;1.60;99.90;;;;;;5051396;28;20456;-49
2021/12/19 10:55:43;;;;;;;;;;;1.60;99.90;;;;;;5058988;28;19925;-48
2021/12/19 10:58:24;;;;;;;;;;;1.70;99.90;;;;;;5066278;28;20024;-48
2021/12/19 11:00:55;;;;;;;;;;;1.80;99.90;;;;;;5050208;28;19935;-49
2021/12/19 11:03:35;;;;;;;;;;;1.90;99.90;;;;;;5055874;28;19935;-49
2021/12/19 11:06:01;;;;;;;;;;;1.90;99.90;;;;;;5065408;28;19932;-48
2021/12/19 11:08:31;;;;;;;;;;;1.90;99.90;;;;;;5050460;28;20379;-47
2021/12/19 11:10:58;;;;;;;;;;;2.00;99.90;;;;;;5054228;28;20358;-48
2021/12/19 11:13:25;;;;;;;;;;;2.10;99.90;;;;;;5056486;28;20002;-47
2021/12/19 11:15:52;;;;;;;;;;;2.20;99.90;;;;;;5049159;28;20057;-48
2021/12/19 11:18:19;;;;;;;;;;;2.10;99.90;;;;;;5050812;28;20387;-50
2021/12/19 11:20:47;;;;;;;;;;;1.90;99.90;;;;;;5061365;28;19925;-49
2021/12/19 11:23:14;;;;;;;;;;;1.90;99.90;;;;;;5051968;28;19932;-48
2021/12/19 11:25:42;;;;;;;;;;;1.90;99.90;;;;;;5050932;28;19979;-50
2021/12/19 11:28:09;;;;;;;;;;;2.00;99.90;;;;;;5048769;28;19943;-50
2021/12/19 11:30:36;;;;;;;;;;;2.00;99.90;;;;;;5052854;28;19933;-49
2021/12/19 11:33:10;;;;;;;;;;;1.80;99.90;;;;;;5046614;28;19933;-51
2021/12/19 11:35:38;;;;;;;;;;;1.90;99.90;;;;;;5033027;28;19971;-49
2021/12/19 11:38:08;;;;;;;;;;;2.00;99.90;;;;;;5046703;28;19979;-50
2021/12/19 11:40:36;;;;;;;;;;;2.00;99.90;;;;;;5052677;28;19975;-50
2021/12/19 11:43:04;;;;;;;;;;;2.00;99.90;;;;;;5052169;28;19932;-49
2021/12/19 11:45:37;;;;;;;;;;;2.10;99.90;;;;;;5051904;28;19993;-49
2021/12/19 11:48:09;;;;;;;;;;;2.20;99.90;;;;;;5051415;28;19925;-49
2021/12/19 11:50:37;;;;;;;;;;;2.20;99.90;;;;;;5052594;28;20390;-49
2021/12/19 11:53:22;;;;;;;;;;;2.00;99.90;;;;;;5051537;28;19955;-47
2021/12/19 11:55:51;;;;;;;;;;;2.00;99.90;;;;;;5062495;28;19978;-47
2021/12/19 11:58:22;;;;;;;;;;;2.10;99.90;;;;;;5057813;28;19929;-48
2021/12/19 12:00:54;;;;;;;;;;;2.00;99.90;;;;;;5052432;28;20348;-48
2021/12/19 12:03:24;;;;;;;;;;;2.20;99.90;;;;;;5049653;28;19929;-48
2021/12/19 12:05:51;;;;;;;;;;;2.20;99.90;;;;;;5052441;28;19987;-48
2021/12/19 12:08:18;;;;;;;;;;;2.20;99.90;;;;;;5051841;28;19928;-48
2021/12/19 12:11:03;;;;;;;;;;;2.20;99.90;;;;;;5051817;28;20468;-48
2021/12/19 12:13:33;;;;;;;;;;;2.40;99.90;;;;;;5030848;28;19929;-48
2021/12/19 12:16:24;;;;;;;;;;;2.30;99.90;;;;;;5032202;28;20441;-47
2021/12/19 12:18:54;;;;;;;;;;;2.40;99.90;;;;;;5049939;28;19924;-48
2021/12/19 12:21:28;;;;;;;;;;;2.40;99.90;;;;;;5062641;28;20498;-48
2021/12/19 12:23:56;;;;;;;;;;;2.40;99.90;;;;;;5054993;28;19932;-48
2021/12/19 12:26:24;;;;;;;;;;;2.20;99.90;;;;;;5051765;28;20048;-49
2021/12/19 12:28:52;;;;;;;;;;;2.10;99.90;;;;;;5051737;28;20007;-48
2021/12/19 12:31:19;;;;;;;;;;;2.00;99.90;;;;;;5036802;28;19925;-48
2021/12/19 12:33:46;;;;;;;;;;;2.20;99.90;;;;;;5043984;28;19925;-47
2021/12/19 12:36:15;;;;;;;;;;;2.20;99.90;;;;;;5057064;28;19986;-48
2021/12/19 12:38:45;;;;;;;;;;;2.30;99.90;;;;;;5069724;28;19925;-49
2021/12/19 12:41:26;;;;;;;;;;;2.20;99.90;;;;;;5062352;28;19924;-48
2021/12/19 12:43:55;;;;;;;;;;;2.10;99.90;;;;;;5050857;28;19932;-48
2021/12/19 12:46:23;;;;;;;;;;;2.30;99.90;;;;;;5050763;28;19979;-47
2021/12/19 12:48:52;;;;;;;;;;;2.40;99.90;;;;;;5042131;28;19956;-48
2021/12/19 12:51:24;;;;;;;;;;;2.40;99.90;;;;;;5056551;28;19925;-49
2021/12/19 12:53:52;;;;;;;;;;;2.30;99.90;;;;;;5040252;28;20395;-48
2021/12/19 12:56:22;;;;;;;;;;;2.50;99.90;;;;;;5031428;28;20268;-49
2021/12/19 12:58:49;;;;;;;;;;;2.50;99.90;;;;;;5031342;28;20059;-48
2021/12/19 13:01:22;;;;;;;;;;;2.50;99.90;;;;;;5031317;28;19933;-49
2021/12/19 13:04:00;;;;;;;;;;;2.50;99.90;;;;;;5033139;28;19924;-48
2021/12/19 13:06:46;;;;;;;;;;;2.40;99.90;;;;;;5048682;28;19968;-48
2021/12/19 13:09:15;;;;;;;;;;;2.20;99.90;;;;;;5042855;28;19928;-48
2021/12/19 13:11:43;;;;;;;;;;;2.10;99.90;;;;;;5042919;28;19939;-48
2021/12/19 13:14:10;;;;;;;;;;;2.20;99.90;;;;;;5039904;28;19937;-48
2021/12/19 13:16:42;;;;;;;;;;;2.20;99.90;;;;;;5044093;28;19936;-48
2021/12/19 13:19:10;;;;;;;;;;;2.20;99.90;;;;;;5048846;28;20900;-49
2021/12/19 13:21:56;;;;;;;;;;;2.10;99.90;;;;;;5042032;28;20394;-48
2021/12/19 13:24:24;;;;;;;;;;;2.10;99.90;;;;;;5040688;28;19932;-49
2021/12/19 13:27:02;;;;;;;;;;;2.00;99.90;;;;;;5045018;28;20509;-47
2021/12/19 13:29:29;;;;;;;;;;;2.00;99.90;;;;;;5046776;28;20463;-48
2021/12/19 13:32:15;;;;;;;;;;;2.00;99.90;;;;;;5047367;28;19928;-47
2021/12/19 13:34:42;;;;;;;;;;;2.00;99.90;;;;;;5047273;28;19924;-48
2021/12/19 13:37:09;;;;;;;;;;;1.90;99.90;;;;;;5049677;28;19998;-49
2021/12/19 13:39:36;;;;;;;;;;;1.70;99.90;;;;;;5048338;28;20301;-47
2021/12/19 13:42:06;;;;;;;;;;;1.80;99.90;;;;;;5046781;28;19925;-48
2021/12/19 13:44:33;;;;;;;;;;;1.60;99.90;;;;;;5046054;28;19939;-48
2021/12/19 13:47:09;;;;;;;;;;;1.70;99.90;;;;;;5045085;28;19972;-48
2021/12/19 13:49:36;;;;;;;;;;;1.80;99.90;;;;;;5047478;28;19933;-47
2021/12/19 13:52:03;;;;;;;;;;;1.70;99.90;;;;;;5045097;28;20425;-48
2021/12/19 13:54:31;;;;;;;;;;;1.50;99.90;;;;;;5056268;28;20015;-48
2021/12/19 13:56:58;;;;;;;;;;;1.40;99.90;;;;;;5051573;28;19982;-47
2021/12/19 13:59:27;;;;;;;;;;;1.40;99.90;;;;;;5054675;28;19929;-48
2021/12/19 14:01:54;;;;;;;;;;;1.40;99.90;;;;;;5054077;28;19978;-48
2021/12/19 14:04:24;;;;;;;;;;;1.30;99.90;;;;;;5054309;28;19932;-48
2021/12/19 14:06:57;;;;;;;;;;;1.20;99.90;;;;;;5054413;28;19925;-48
2021/12/19 14:09:24;;;;;;;;;;;1.20;99.90;;;;;;5048426;28;19936;-48
2021/12/19 14:11:56;;;;;;;;;;;1.20;99.90;;;;;;5050039;28;19925;-47
2021/12/19 14:14:27;;;;;;;;;;;1.20;99.90;;;;;;5035826;28;20376;-48
2021/12/19 14:16:57;;;;;;;;;;;1.20;99.90;;;;;;5034523;28;19933;-48
2021/12/19 14:19:26;;;;;;;;;;;1.30;99.90;;;;;;5034143;28;19925;-48
2021/12/19 14:21:54;;;;;;;;;;;1.20;99.90;;;;;;5033783;28;20449;-47
2021/12/19 14:24:32;;;;;;;;;;;1.10;99.90;;;;;;5037861;28;19929;-48
2021/12/19 14:27:06;;;;;;;;;;;0.90;99.90;;;;;;5053925;28;19972;-47
2021/12/19 14:29:33;;;;;;;;;;;1.00;99.90;;;;;;5053937;28;19924;-47
2021/12/19 14:32:00;;;;;;;;;;;0.90;99.90;;;;;;5053760;28;19933;-48
2021/12/19 14:34:29;;;;;;;;;;;1.00;99.90;;;;;;5053741;28;19932;-49
2021/12/19 14:36:57;;;;;;;;;;;1.20;99.90;;;;;;5053520;28;20000;-49
2021/12/19 14:39:26;;;;;;;;;;;1.20;99.90;;;;;;5053418;28;19925;-48
2021/12/19 14:41:52;;;;;;;;;;;0.90;99.90;;;;;;5038269;28;19926;-47
2021/12/19 14:44:23;;;;;;;;;;;0.90;99.90;;;;;;5034124;28;19937;-48
2021/12/19 14:46:50;;;;;;;;;;;0.90;99.90;;;;;;5033002;28;19925;-48
2021/12/19 14:49:17;;;;;;;;;;;0.80;99.90;;;;;;5033344;28;19966;-48
2021/12/19 14:51:57;;;;;;;;;;;0.70;99.90;;;;;;5033379;28;19944;-48
2021/12/19 14:54:24;;;;;;;;;;;0.70;99.90;;;;;;5035269;28;20383;-48
2021/12/19 14:56:51;;;;;;;;;;;0.60;99.90;;;;;;5038780;28;20028;-48
2021/12/19 14:59:20;;;;;;;;;;;0.60;99.90;;;;;;5053155;28;19979;-49
2021/12/19 15:01:47;;;;;;;;;;;0.70;99.90;;;;;;5053346;28;19925;-49
2021/12/19 15:04:15;;;;;;;;;;;0.60;99.90;;;;;;5053316;28;19925;-48
2021/12/19 15:06:42;;;;;;;;;;;0.50;99.90;;;;;;5053150;28;19928;-48
2021/12/19 15:09:13;;;;;;;;;;;0.50;99.90;;;;;;5103978;22;19928;-50
2021/12/19 15:11:40;;;;;;;;;;;0.40;99.90;;;;;;5093686;28;20393;-50
2021/12/19 15:14:08;;;;;;;;;;;0.50;99.90;;;;;;5094356;28;19982;-49
2021/12/19 15:16:35;;;;;;;;;;;0.50;99.90;;;;;;5094276;28;19928;-49
2021/12/19 15:19:03;;;;;;;;;;;0.70;99.90;;;;;;5094060;28;19969;-50
2021/12/19 15:21:30;;;;;;;;;;;0.70;99.90;;;;;;5093465;28;19924;-50
2021/12/19 15:23:57;;;;;;;;;;;0.60;99.90;;;;;;5094134;28;20344;-49